Time;durP1;ratioP1;P1;durP2;ratioP2;P2;SDS_P1;SDS_P2;PMS_P1;PMS_P2;Temp;Humidity;BMP_temperature;BMP_pressure;BME280_temperature;BME280_humidity;BME280_pressure;Samples;Min_cycle;Max_cycle;Signal;HPM_P1;HPM_P2
2022/03/24 00:02:12;;;;;;;71.40;43.08;;;;;;;6.70;62.37;102927.94;5024124;28;20058;-64
2022/03/24 00:04:37;;;;;;;67.30;42.73;;;;;;;6.83;62.53;102928.03;5010326;28;20030;-64
2022/03/24 00:07:03;;;;;;;69.85;42.15;;;;;;;6.85;62.74;102926.13;5019313;28;20030;-64
2022/03/24 00:09:29;;;;;;;64.80;40.63;;;;;;;6.76;62.72;102921.44;5018022;28;20485;-64
2022/03/24 00:11:55;;;;;;;65.33;41.13;;;;;;;6.70;62.66;102917.38;5018308;28;20034;-64
2022/03/24 00:14:20;;;;;;;68.67;40.67;;;;;;;6.65;62.72;102922.09;5016399;28;20034;-64
2022/03/24 00:16:45;;;;;;;65.27;39.43;;;;;;;6.55;62.73;102918.31;5025917;28;20023;-64
2022/03/24 00:19:11;;;;;;;68.82;39.00;;;;;;;6.48;63.01;102915.19;5018371;28;20038;-64
2022/03/24 00:21:37;;;;;;;62.87;39.30;;;;;;;6.40;63.19;102909.53;5014714;28;20037;-64
2022/03/24 00:24:03;;;;;;;66.07;40.43;;;;;;;6.42;63.30;102912.94;5019005;28;20136;-64
2022/03/24 00:26:28;;;;;;;70.70;41.70;;;;;;;6.52;63.15;102914.06;5016853;28;20048;-64
2022/03/24 00:28:54;;;;;;;67.77;40.50;;;;;;;6.58;63.42;102911.97;5015580;28;20050;-64
2022/03/24 00:31:19;;;;;;;58.17;37.87;;;;;;;6.59;63.60;102911.03;5021327;28;20104;-64
2022/03/24 00:33:45;;;;;;;58.90;37.03;;;;;;;6.57;63.63;102915.56;5016779;28;20021;-64
2022/03/24 00:36:10;;;;;;;56.53;35.07;;;;;;;6.57;63.69;102905.84;5019488;28;20049;-64
2022/03/24 00:38:36;;;;;;;58.90;35.43;;;;;;;6.53;63.72;102905.19;5013865;28;20088;-64
2022/03/24 00:41:02;;;;;;;64.17;37.03;;;;;;;6.46;63.83;102910.94;5017909;28;20026;-64
2022/03/24 00:43:28;;;;;;;64.83;37.17;;;;;;;6.49;63.88;102908.13;5014661;28;20025;-64
2022/03/24 00:45:53;;;;;;;62.00;37.53;;;;;;;6.53;63.86;102910.47;5018368;28;20048;-64
2022/03/24 00:48:19;;;;;;;69.53;37.70;;;;;;;6.46;63.86;102903.03;5015470;28;20268;-64
2022/03/24 00:50:45;;;;;;;57.77;37.80;;;;;;;6.34;64.11;102909.88;5018394;28;20416;-64
2022/03/24 00:53:11;;;;;;;64.10;38.90;;;;;;;6.25;64.28;102912.22;5016618;28;20022;-64
2022/03/24 00:55:37;;;;;;;69.90;39.77;;;;;;;6.09;64.57;102907.03;5016280;28;20037;-64
2022/03/24 00:58:03;;;;;;;66.47;38.67;;;;;;;5.98;64.59;102906.81;5019800;28;20025;-64
2022/03/24 01:00:29;;;;;;;67.93;41.43;;;;;;;5.94;65.13;102900.00;5013716;28;20063;-64
2022/03/24 01:02:55;;;;;;;65.60;41.17;;;;;;;5.85;65.41;102901.38;5017746;28;20248;-64
2022/03/24 01:05:23;;;;;;;68.83;40.87;;;;;;;5.80;65.57;102896.38;5016028;28;20147;-64
2022/03/24 01:07:49;;;;;;;68.23;39.80;;;;;;;5.91;65.76;102901.03;5017477;28;20033;-64
2022/03/24 01:10:17;;;;;;;68.50;40.40;;;;;;;5.99;65.81;102898.78;5013755;28;20034;-64
2022/03/24 01:12:43;;;;;;;70.37;42.00;;;;;;;5.98;65.76;102894.47;5013077;28;20029;-64
2022/03/24 01:15:11;;;;;;;64.93;40.57;;;;;;;5.88;65.86;102896.78;5017798;28;20483;-64
2022/03/24 01:17:37;;;;;;;69.53;42.03;;;;;;;5.82;66.22;102891.00;5014905;28;20029;-64
2022/03/24 01:20:04;;;;;;;68.00;41.97;;;;;;;5.68;66.03;102894.44;5018957;28;20049;-64
2022/03/24 01:22:29;;;;;;;66.17;39.07;;;;;;;5.67;66.18;102886.59;5015371;28;20024;-64
2022/03/24 01:24:56;;;;;;;67.50;38.17;;;;;;;5.55;66.55;102894.31;5010684;28;20034;-64
2022/03/24 01:27:25;;;;;;;61.33;38.60;;;;;;;5.42;66.48;102888.00;5015735;28;20034;-64
2022/03/24 01:29:51;;;;;;;71.35;39.90;;;;;;;5.49;66.61;102883.22;5016737;28;20401;-64
2022/03/24 01:32:17;;;;;;;73.07;43.03;;;;;;;5.49;66.81;102885.88;5016741;28;20025;-64
2022/03/24 01:34:43;;;;;;;69.87;41.67;;;;;;;5.51;67.15;102879.59;5016699;28;20350;-64
2022/03/24 01:37:08;;;;;;;67.73;40.53;;;;;;;5.43;67.44;102883.59;5021200;28;20025;-64
2022/03/24 01:39:33;;;;;;;69.93;39.03;;;;;;;5.44;67.42;102886.13;5015907;28;20071;-64
2022/03/24 01:42:00;;;;;;;68.80;39.93;;;;;;;5.42;67.60;102876.63;5018123;28;20039;-64
2022/03/24 01:44:27;;;;;;;66.53;40.70;;;;;;;5.34;67.49;102873.56;5016627;28;20058;-64
2022/03/24 01:47:05;;;;;;;77.80;39.97;;;;;;;5.28;67.83;102875.63;5014528;28;20072;-64
2022/03/24 01:49:35;;;;;;;70.43;40.50;;;;;;;5.34;67.77;102873.56;5016665;28;20029;-64
2022/03/24 01:52:01;;;;;;;59.80;36.30;;;;;;;5.34;67.68;102871.78;5015586;28;20017;-64
2022/03/24 01:54:31;;;;;;;57.43;33.37;;;;;;;5.36;67.35;102867.28;5014530;28;20018;-64
2022/03/24 01:56:58;;;;;;;64.23;35.43;;;;;;;5.38;67.48;102856.66;5014895;28;20029;-64
2022/03/24 01:59:24;;;;;;;62.00;39.20;;;;;;;5.42;67.41;102861.66;5013811;28;20520;-64
2022/03/24 02:01:50;;;;;;;67.97;40.67;;;;;;;5.36;67.28;102863.81;5015892;28;20022;-64
2022/03/24 02:04:17;;;;;;;58.57;37.30;;;;;;;5.26;67.16;102861.69;5016053;28;20021;-64
2022/03/24 02:06:42;;;;;;;62.67;37.00;;;;;;;5.03;67.15;102864.75;5017496;28;20075;-64
2022/03/24 02:09:08;;;;;;;59.43;34.33;;;;;;;4.71;66.79;102852.50;5018642;28;20017;-64
2022/03/24 02:11:34;;;;;;;66.47;40.67;;;;;;;4.61;67.59;102858.25;5017601;28;20036;-64
2022/03/24 02:14:01;;;;;;;60.23;35.70;;;;;;;4.61;67.63;102866.16;5014967;28;20025;-64
2022/03/24 02:16:38;;;;;;;57.80;35.50;;;;;;;4.64;67.94;102862.53;5016772;28;20067;-64
2022/03/24 02:19:15;;;;;;;74.07;44.80;;;;;;;4.78;68.60;102854.72;5009640;28;20034;-64
2022/03/24 02:21:41;;;;;;;65.53;37.53;;;;;;;4.88;68.31;102855.06;5013707;28;20443;-64
2022/03/24 02:24:07;;;;;;;65.53;38.40;;;;;;;4.91;68.25;102854.88;5013861;28;20088;-64
2022/03/24 02:26:35;;;;;;;58.93;35.60;;;;;;;4.90;68.22;102858.44;5017515;28;20429;-64
2022/03/24 02:29:01;;;;;;;52.90;32.77;;;;;;;4.84;67.92;102853.53;5012119;28;20611;-64
2022/03/24 02:31:28;;;;;;;62.73;35.50;;;;;;;4.84;68.27;102864.06;5019104;28;20088;-64
2022/03/24 02:34:37;;;;;;;60.27;35.20;;;;;;;4.82;67.77;102853.63;5018956;28;20067;-64
2022/03/24 02:36:39;;;;;;;62.53;38.57;;;;;;;4.75;67.61;102851.41;5018710;28;20446;-64
2022/03/24 02:39:05;;;;;;;64.37;36.47;;;;;;;4.76;67.84;102853.09;5020852;28;20120;-64
2022/03/24 02:41:31;;;;;;;63.60;39.03;;;;;;;4.62;68.28;102846.78;5021096;28;20028;-64
2022/03/24 02:43:57;;;;;;;64.43;38.23;;;;;;;4.60;68.06;102864.44;5015713;28;20033;-64
2022/03/24 02:46:22;;;;;;;76.40;42.50;;;;;;;4.59;68.43;102860.13;5018639;28;20029;-64
2022/03/24 02:48:48;;;;;;;68.40;40.93;;;;;;;4.61;68.91;102858.25;5021064;28;20551;-64
2022/03/24 02:51:13;;;;;;;62.73;38.57;;;;;;;4.56;68.64;102862.06;5020535;28;20043;-64
2022/03/24 02:53:38;;;;;;;63.27;36.43;;;;;;;4.41;68.47;102841.84;5018823;28;20028;-64
2022/03/24 02:56:04;;;;;;;68.43;39.07;;;;;;;4.43;68.62;102854.00;5019938;28;20026;-63
2022/03/24 02:58:29;;;;;;;66.47;39.67;;;;;;;4.50;68.84;102860.63;5018190;28;20494;-63
2022/03/24 03:00:54;;;;;;;61.77;37.70;;;;;;;4.50;68.80;102860.63;5015187;28;20119;-64
2022/03/24 03:03:22;;;;;;;61.10;38.07;;;;;;;4.42;68.84;102859.34;5018345;28;20037;-64
2022/03/24 03:05:47;;;;;;;65.33;37.80;;;;;;;4.39;68.97;102856.88;5020839;28;20107;-64
2022/03/24 03:08:12;;;;;;;59.80;37.80;;;;;;;4.39;69.02;102857.72;5014996;28;20573;-63
2022/03/24 03:10:38;;;;;;;64.90;37.90;;;;;;;4.42;69.20;102847.03;5020296;28;20044;-62
2022/03/24 03:13:03;;;;;;;64.67;38.57;;;;;;;4.40;69.06;102853.31;5019240;28;20040;-63
2022/03/24 03:15:28;;;;;;;65.37;38.13;;;;;;;4.28;69.50;102860.03;5020007;28;20038;-62
2022/03/24 03:17:53;;;;;;;68.30;39.53;;;;;;;4.32;69.39;102846.66;5022057;28;20030;-62
2022/03/24 03:20:19;;;;;;;71.40;40.80;;;;;;;4.19;69.38;102850.84;5021529;28;20526;-62
2022/03/24 03:22:44;;;;;;;69.17;41.00;;;;;;;4.24;69.60;102854.09;5018485;28;20033;-62
2022/03/24 03:25:09;;;;;;;67.63;40.53;;;;;;;4.19;69.35;102857.91;5021828;28;20029;-62
2022/03/24 03:27:35;;;;;;;72.47;40.37;;;;;;;4.21;69.85;102856.88;5018061;28;20033;-62
2022/03/24 03:30:00;;;;;;;67.30;40.83;;;;;;;4.23;69.90;102855.03;5018142;28;20037;-61
2022/03/24 03:32:25;;;;;;;60.30;37.60;;;;;;;4.12;69.93;102860.00;5020304;28;20029;-63
2022/03/24 03:34:51;;;;;;;60.57;37.03;;;;;;;4.06;69.81;102864.72;5016840;28;20576;-62
2022/03/24 03:37:16;;;;;;;57.37;35.80;;;;;;;3.77;69.64;102859.19;5019096;28;20022;-62
2022/03/24 03:39:41;;;;;;;61.73;36.03;;;;;;;3.61;69.70;102859.06;5016520;28;20037;-62
2022/03/24 03:42:08;;;;;;;59.83;38.53;;;;;;;3.50;69.98;102858.75;5021312;28;20655;-62
2022/03/24 03:44:34;;;;;;;62.97;37.70;;;;;;;3.34;70.14;102852.53;5017710;28;20029;-62
2022/03/24 03:47:01;;;;;;;68.87;40.17;;;;;;;3.27;70.43;102865.13;5017875;28;20108;-62
2022/03/24 03:49:26;;;;;;;70.23;40.50;;;;;;;3.25;70.72;102860.88;5016635;28;20030;-62
2022/03/24 03:51:52;;;;;;;73.53;43.77;;;;;;;3.32;71.42;102859.66;5018351;28;20460;-64
2022/03/24 03:54:17;;;;;;;79.63;44.23;;;;;;;3.49;71.91;102866.72;5018705;28;20033;-62
2022/03/24 03:56:42;;;;;;;68.23;41.63;;;;;;;3.52;71.58;102870.03;5014189;28;20035;-62
2022/03/24 03:59:08;;;;;;;67.03;40.10;;;;;;;3.52;71.44;102863.94;5017441;28;20030;-62
2022/03/24 04:01:34;;;;;;;74.20;41.50;;;;;;;3.47;71.25;102865.91;5016784;28;20033;-62
2022/03/24 04:04:00;;;;;;;72.47;41.97;;;;;;;3.50;71.45;102869.28;5017001;28;20033;-62
2022/03/24 04:06:25;;;;;;;64.63;37.57;;;;;;;3.41;71.53;102864.44;5018604;28;20069;-62
2022/03/24 04:08:51;;;;;;;68.37;38.10;;;;;;;3.36;71.75;102863.81;5017983;28;20393;-62
2022/03/24 04:11:16;;;;;;;63.33;37.47;;;;;;;3.41;71.70;102867.91;5017721;28;20036;-62
2022/03/24 04:13:42;;;;;;;67.70;39.70;;;;;;;3.48;71.84;102867.66;5018010;28;20029;-63
2022/03/24 04:16:13;;;;;;;64.50;38.40;;;;;;;3.54;71.89;102872.59;5020180;28;20028;-62
2022/03/24 04:18:43;;;;;;;61.60;34.70;;;;;;;3.57;71.71;102870.66;5018151;28;20037;-62
2022/03/24 04:21:09;;;;;;;62.27;36.60;;;;;;;3.65;71.61;102868.50;5014246;28;20037;-63
2022/03/24 04:23:36;;;;;;;66.83;37.87;;;;;;;3.73;71.61;102876.00;5016663;28;20026;-62
2022/03/24 04:26:02;;;;;;;64.40;36.33;;;;;;;3.76;71.49;102867.97;5016978;28;20374;-62
2022/03/24 04:28:27;;;;;;;61.10;36.60;;;;;;;3.80;71.11;102861.66;5020011;28;20501;-62
2022/03/24 04:30:53;;;;;;;65.90;36.97;;;;;;;3.84;71.17;102862.34;5014863;28;20119;-63
2022/03/24 04:33:18;;;;;;;63.00;36.40;;;;;;;3.89;70.80;102865.56;5017845;28;20037;-62
2022/03/24 04:35:44;;;;;;;60.13;36.37;;;;;;;3.83;70.80;102865.91;5016520;28;20528;-63
2022/03/24 04:38:09;;;;;;;66.50;38.73;;;;;;;3.74;70.68;102864.56;5018560;28;20065;-63
2022/03/24 04:40:35;;;;;;;63.87;37.07;;;;;;;3.81;70.94;102865.97;5015563;28;20042;-62
2022/03/24 04:43:00;;;;;;;67.33;37.50;;;;;;;3.78;70.81;102863.50;5013578;28;20424;-62
2022/03/24 04:45:32;;;;;;;70.33;38.83;;;;;;;3.87;70.92;102865.66;5014885;28;20112;-62
2022/03/24 04:47:58;;;;;;;66.00;38.80;;;;;;;3.82;70.77;102867.66;5015311;28;20038;-62
2022/03/24 04:50:23;;;;;;;63.70;37.63;;;;;;;3.80;70.65;102866.06;5013511;28;20041;-63
2022/03/24 04:52:49;;;;;;;64.20;38.40;;;;;;;3.83;70.96;102874.63;5019006;28;20053;-62
2022/03/24 04:55:15;;;;;;;64.30;38.17;;;;;;;3.77;70.91;102874.94;5016550;28;20092;-62
2022/03/24 04:57:42;;;;;;;70.07;40.03;;;;;;;3.84;70.96;102865.81;5020610;28;20354;-62
2022/03/24 05:00:09;;;;;;;63.20;39.17;;;;;;;3.77;71.06;102872.31;5015846;28;20029;-62
2022/03/24 05:02:35;;;;;;;64.23;38.33;;;;;;;3.75;71.08;102871.50;5018070;28;20036;-62
2022/03/24 05:05:00;;;;;;;63.00;36.77;;;;;;;3.73;71.19;102868.09;5015008;28;20028;-63
2022/03/24 05:07:27;;;;;;;60.03;37.40;;;;;;;3.61;70.86;102869.59;5017138;28;20117;-62
2022/03/24 05:09:53;;;;;;;63.27;37.13;;;;;;;3.56;70.95;102876.00;5018054;28;20041;-63
2022/03/24 05:12:18;;;;;;;63.10;37.60;;;;;;;3.51;71.04;102875.38;5014662;28;20473;-63
2022/03/24 05:14:44;;;;;;;67.20;39.23;;;;;;;3.56;71.20;102866.34;5013216;28;20039;-62
2022/03/24 05:17:09;;;;;;;66.83;39.20;;;;;;;3.55;71.33;102875.16;5015918;28;20477;-62
2022/03/24 05:19:35;;;;;;;66.73;39.40;;;;;;;3.56;71.15;102876.00;5015524;28;20108;-63
2022/03/24 05:22:01;;;;;;;69.80;39.43;;;;;;;3.65;71.57;102883.41;5020341;28;20100;-63
2022/03/24 05:24:26;;;;;;;69.50;40.20;;;;;;;3.66;71.72;102880.72;5016341;28;20033;-63
2022/03/24 05:26:51;;;;;;;70.70;39.53;;;;;;;3.73;71.49;102883.88;5015373;28;20473;-63
2022/03/24 05:29:17;;;;;;;70.93;41.90;;;;;;;3.71;71.42;102883.09;5016518;28;20029;-62
2022/03/24 05:31:42;;;;;;;68.23;39.77;;;;;;;3.68;71.35;102885.88;5016801;28;20069;-62
2022/03/24 05:34:07;;;;;;;74.90;42.03;;;;;;;3.77;71.51;102888.09;5019980;28;20025;-62
2022/03/24 05:36:33;;;;;;;70.03;40.03;;;;;;;3.79;71.52;102891.47;5015448;28;20039;-63
2022/03/24 05:38:58;;;;;;;69.77;41.23;;;;;;;3.78;71.57;102886.31;5014657;28;20033;-62
2022/03/24 05:41:24;;;;;;;67.20;38.57;;;;;;;3.73;71.60;102881.25;5017276;28;20045;-62
2022/03/24 05:44:04;;;;;;;73.57;42.00;;;;;;;3.66;71.80;102882.50;5015337;28;20025;-62
2022/03/24 05:46:39;;;;;;;65.03;36.37;;;;;;;3.51;71.39;102876.22;5016538;28;20079;-63
2022/03/24 05:49:06;;;;;;;60.67;35.37;;;;;;;3.47;71.54;102881.66;5015151;28;20033;-64
2022/03/24 05:51:32;;;;;;;61.00;34.30;;;;;;;3.37;71.51;102879.50;5017559;28;20030;-63
2022/03/24 05:53:57;;;;;;;56.23;33.17;;;;;;;3.32;71.82;102886.75;5014731;28;20029;-64
2022/03/24 05:56:22;;;;;;;56.40;34.13;;;;;;;3.26;71.91;102888.81;5015214;28;20666;-64
2022/03/24 05:58:48;;;;;;;57.40;33.93;;;;;;;3.19;72.07;102892.69;5015485;28;20486;-63
2022/03/24 06:01:15;;;;;;;63.33;35.33;;;;;;;3.19;72.59;102893.53;5017962;28;20034;-63
2022/03/24 06:03:42;;;;;;;58.53;34.97;;;;;;;3.05;72.76;102890.69;5012680;28;20436;-63
2022/03/24 06:06:08;;;;;;;59.67;35.57;;;;;;;2.97;72.90;102888.41;5020915;28;20032;-64
2022/03/24 06:08:35;;;;;;;59.47;36.63;;;;;;;2.95;73.23;102897.28;5022197;28;20038;-63
2022/03/24 06:11:01;;;;;;;56.53;35.37;;;;;;;2.91;73.54;102893.97;5020455;28;20053;-63
2022/03/24 06:13:27;;;;;;;62.40;37.03;;;;;;;2.93;73.76;102896.50;5018170;28;20064;-63
2022/03/24 06:15:54;;;;;;;66.33;37.97;;;;;;;2.88;74.31;102893.22;5019219;28;20331;-63
2022/03/24 06:18:20;;;;;;;62.47;37.83;;;;;;;2.92;74.39;102897.44;5018876;28;20032;-63
2022/03/24 06:20:46;;;;;;;71.50;39.17;;;;;;;2.93;74.69;102899.13;5017559;28;20022;-63
2022/03/24 06:23:12;;;;;;;72.63;40.30;;;;;;;2.96;74.77;102901.63;5020508;28;20532;-64
2022/03/24 06:25:37;;;;;;;66.57;38.77;;;;;;;3.04;75.17;102902.94;5018426;28;20641;-63
2022/03/24 06:28:05;;;;;;;72.87;40.67;;;;;;;3.15;75.05;102904.22;5018383;28;20026;-64
2022/03/24 06:30:31;;;;;;;69.23;40.67;;;;;;;3.20;75.18;102908.34;5020101;28;20029;-64
2022/03/24 06:32:57;;;;;;;70.83;40.57;;;;;;;3.24;75.27;102903.81;5017696;28;20112;-63
2022/03/24 06:35:22;;;;;;;74.40;41.97;;;;;;;3.26;75.33;102900.19;5020542;28;20429;-64
2022/03/24 06:37:48;;;;;;;63.77;36.10;;;;;;;3.22;75.25;102903.88;5021816;28;20104;-63
2022/03/24 06:40:14;;;;;;;71.93;39.47;;;;;;;3.28;75.44;102903.59;5018959;28;20037;-64
2022/03/24 06:42:39;;;;;;;69.97;38.77;;;;;;;3.36;75.68;102901.44;5020664;28;20469;-63
2022/03/24 06:45:06;;;;;;;71.03;38.37;;;;;;;3.39;75.58;102901.28;5017903;28;20044;-64
2022/03/24 06:47:32;;;;;;;63.60;37.47;;;;;;;3.46;75.69;102900.97;5014384;28;20501;-63
2022/03/24 06:49:57;;;;;;;69.60;39.30;;;;;;;3.51;75.68;102896.38;5014527;28;20030;-64
2022/03/24 06:52:23;;;;;;;71.67;39.40;;;;;;;3.55;75.64;102898.78;5030973;28;20025;-63
2022/03/24 06:54:48;;;;;;;68.20;38.90;;;;;;;3.62;75.55;102892.31;5018042;28;20030;-64
2022/03/24 06:57:14;;;;;;;71.00;39.53;;;;;;;3.75;75.62;102897.78;5019487;28;20093;-63
2022/03/24 06:59:40;;;;;;;66.60;39.07;;;;;;;3.93;75.69;102903.91;5019137;28;20033;-63
2022/03/24 07:02:07;;;;;;;69.57;40.57;;;;;;;4.10;76.00;102903.09;5018498;28;20079;-63
2022/03/24 07:04:32;;;;;;;75.63;40.33;;;;;;;4.32;76.34;102899.25;5015891;28;20499;-64
2022/03/24 07:06:57;;;;;;;74.27;42.10;;;;;;;4.55;76.35;102911.22;5020897;28;20037;-64
2022/03/24 07:09:23;;;;;;;72.30;41.30;;;;;;;4.75;75.97;102909.31;5018389;28;20041;-63
2022/03/24 07:11:48;;;;;;;72.60;39.77;;;;;;;4.93;75.63;102909.19;5021541;28;20034;-64
2022/03/24 07:14:14;;;;;;;71.30;39.97;;;;;;;5.14;75.34;102906.28;5018609;28;20037;-63
2022/03/24 07:16:39;;;;;;;71.47;41.33;;;;;;;5.29;75.04;102910.72;5018265;28;20382;-63
2022/03/24 07:19:06;;;;;;;72.97;41.30;;;;;;;5.42;74.80;102913.50;5018345;28;20148;-63
2022/03/24 07:21:31;;;;;;;68.67;40.43;;;;;;;5.66;74.69;102912.13;5014885;28;20030;-63
2022/03/24 07:23:56;;;;;;;68.67;40.17;;;;;;;5.81;74.57;102921.81;5012400;28;20044;-64
2022/03/24 07:26:22;;;;;;;73.33;42.43;;;;;;;6.03;74.58;102915.28;5020857;28;20036;-64
2022/03/24 07:28:48;;;;;;;72.23;42.10;;;;;;;6.17;74.59;102908.28;5028006;28;20037;-63
2022/03/24 07:31:16;;;;;;;69.73;41.70;;;;;;;6.33;74.64;102907.34;5026271;28;20221;-64
2022/03/24 07:33:43;;;;;;;71.43;41.50;;;;;;;6.48;74.57;102911.72;5017744;28;20487;-64
2022/03/24 07:36:08;;;;;;;71.03;41.30;;;;;;;6.62;74.45;102924.06;5028421;28;20048;-63
2022/03/24 07:38:34;;;;;;;70.07;40.83;;;;;;;6.73;74.00;102918.97;5027086;28;20029;-64
2022/03/24 07:40:59;;;;;;;72.00;40.93;;;;;;;6.88;73.92;102925.94;5014892;28;20021;-64
2022/03/24 07:43:25;;;;;;;70.53;40.43;;;;;;;7.06;73.81;102921.31;5024895;28;20034;-63
2022/03/24 07:45:52;;;;;;;72.90;41.77;;;;;;;7.12;73.66;102908.56;5021061;28;20037;-64
2022/03/24 07:48:20;;;;;;;72.40;41.67;;;;;;;7.35;73.88;102920.31;5019428;28;20760;-64
2022/03/24 07:50:48;;;;;;;73.23;41.87;;;;;;;7.52;73.77;102927.16;5015107;28;20401;-64
2022/03/24 07:53:13;;;;;;;72.27;41.90;;;;;;;7.65;73.32;102922.75;5016456;28;20034;-64
2022/03/24 07:58:22;;;;;;;69.37;40.37;;;;;;;8.00;73.01;102928.34;5051014;28;20410;-64
2022/03/24 08:00:48;;;;;;;65.85;39.38;;;;;;;8.12;72.34;102932.00;5041523;28;20028;-63
2022/03/24 08:03:16;;;;;;;71.60;39.22;;;;;;;8.35;71.49;102930.44;5036102;28;20037;-63
2022/03/24 08:05:41;;;;;;;64.15;37.78;;;;;;;8.51;71.32;102930.25;5040758;28;20033;-64
2022/03/24 08:08:10;;;;;;;66.38;37.47;;;;;;;8.57;69.66;102928.03;5032642;28;20112;-64
2022/03/24 08:10:40;;;;;;;58.40;35.05;;;;;;;8.78;67.91;102930.13;5038063;28;20029;-64
2022/03/24 08:13:06;;;;;;;62.58;36.25;;;;;;;8.86;67.41;102935.75;5033879;28;20037;-64
2022/03/24 08:15:35;;;;;;;62.83;36.67;;;;;;;9.00;66.65;102943.56;5030693;28;20033;-64
2022/03/24 08:18:00;;;;;;;68.90;38.33;;;;;;;9.22;66.58;102932.25;5037502;28;20025;-63
2022/03/24 08:20:25;;;;;;;59.95;36.72;;;;;;;9.32;66.35;102939.47;5029739;28;20030;-64
2022/03/24 08:22:52;;;;;;;61.70;38.00;;;;;;;9.48;65.69;102941.84;5036343;28;20053;-64
2022/03/24 08:25:18;;;;;;;61.03;36.90;;;;;;;9.61;65.19;102934.69;5039239;28;20372;-64
2022/03/24 08:27:43;;;;;;;65.50;36.08;;;;;;;9.72;64.50;102941.00;5043317;28;20096;-64
2022/03/24 08:30:09;;;;;;;57.78;35.85;;;;;;;9.88;64.46;102939.75;5030075;28;20455;-64
2022/03/24 08:32:34;;;;;;;61.83;36.28;;;;;;;10.03;64.37;102947.53;5038780;28;20036;-64
2022/03/24 08:35:00;;;;;;;62.05;35.63;;;;;;;10.18;64.34;102947.22;5038672;28;20041;-64
2022/03/24 08:37:25;;;;;;;56.67;36.10;;;;;;;10.29;63.49;102942.94;5034852;28;20495;-64
2022/03/24 08:39:50;;;;;;;62.53;36.75;;;;;;;10.39;63.20;102944.75;5035187;28;20106;-64
2022/03/24 08:42:16;;;;;;;54.65;34.72;;;;;;;10.52;62.77;102942.00;5028592;28;20038;-65
2022/03/24 08:45:00;;;;;;;59.85;35.08;;;;;;;10.63;62.38;102949.13;5032952;28;20567;-64
2022/03/24 08:47:25;;;;;;;56.47;36.28;;;;;;;10.76;61.90;102948.09;5030936;28;20052;-65
2022/03/24 08:49:50;;;;;;;60.70;35.20;;;;;;;10.90;61.21;102948.78;5032172;28;20505;-64
2022/03/24 08:52:15;;;;;;;50.92;32.58;;;;;;;11.02;60.24;102951.34;5031058;28;20040;-64
2022/03/24 08:54:41;;;;;;;57.47;33.72;;;;;;;11.22;59.03;102944.41;5031248;28;20111;-64
2022/03/24 08:57:06;;;;;;;52.90;33.50;;;;;;;11.48;58.80;102950.28;5032828;28;20547;-64
2022/03/24 08:59:31;;;;;;;57.35;33.85;;;;;;;11.57;58.25;102949.56;5027857;28;20036;-64
2022/03/24 09:01:58;;;;;;;54.95;34.30;;;;;;;11.88;57.90;102947.06;5041957;28;20029;-65
2022/03/24 09:04:26;;;;;;;53.55;34.22;;;;;;;11.85;57.33;102950.81;5032776;28;20035;-64
2022/03/24 09:06:52;;;;;;;54.40;32.97;;;;;;;12.13;56.95;102948.50;5038362;28;20108;-65
2022/03/24 09:09:18;;;;;;;52.80;33.78;;;;;;;12.37;56.47;102955.25;5026046;28;20590;-65
2022/03/24 09:11:43;;;;;;;51.00;33.03;;;;;;;12.70;56.13;102959.53;5021971;28;20040;-65
2022/03/24 09:14:09;;;;;;;50.17;33.20;;;;;;;12.92;55.94;102963.00;5023520;28;20034;-64
2022/03/24 09:16:34;;;;;;;53.95;33.42;;;;;;;13.25;55.30;102961.88;5017199;28;20456;-65
2022/03/24 09:18:59;;;;;;;53.65;33.63;;;;;;;13.29;54.40;102953.47;5023788;28;20040;-65
2022/03/24 09:21:24;;;;;;;53.83;35.28;;;;;;;13.43;52.99;102956.75;5019734;28;20039;-65
2022/03/24 09:23:50;;;;;;;54.25;36.10;;;;;;;13.73;52.94;102961.97;5023211;28;20037;-65
2022/03/24 09:26:15;;;;;;;69.95;37.65;;;;;;;13.70;52.08;102962.25;5019043;28;20037;-65
2022/03/24 09:28:40;;;;;;;59.17;36.22;;;;;;;13.90;52.01;102961.31;5027108;28;20026;-65
2022/03/24 09:31:06;;;;;;;61.70;38.10;;;;;;;14.01;51.26;102959.47;5025207;28;20436;-65
2022/03/24 09:33:32;;;;;;;61.85;38.35;;;;;;;14.22;50.92;102963.66;5025035;28;20037;-65
2022/03/24 09:35:58;;;;;;;57.67;37.38;;;;;;;14.54;50.76;102955.34;5022843;28;20515;-65
2022/03/24 09:38:23;;;;;;;61.42;37.83;;;;;;;14.86;50.29;102959.47;5012780;28;20033;-63
2022/03/24 09:40:51;;;;;;;49.67;33.45;;;;;;;15.00;48.92;102964.31;5025094;28;20413;-63
2022/03/24 09:43:18;;;;;;;51.53;34.72;;;;;;;15.29;47.52;102953.47;5026014;28;20219;-63
2022/03/24 09:45:46;;;;;;;57.05;32.78;;;;;;;15.61;46.69;102963.75;5026894;28;20054;-63
2022/03/24 09:48:12;;;;;;;47.75;31.67;;;;;;;15.91;44.73;102962.53;5009390;28;20113;-63
2022/03/24 09:50:38;;;;;;;47.20;31.95;;;;;;;16.20;44.62;102962.25;5025592;28;20108;-63
2022/03/24 09:53:05;;;;;;;45.97;30.55;;;;;;;16.25;42.87;102957.28;5020521;28;20362;-63
2022/03/24 09:55:32;;;;;;;44.78;27.92;;;;;;;16.48;42.31;102951.38;5029444;28;20097;-63
2022/03/24 09:57:59;;;;;;;35.17;23.55;;;;;;;16.54;41.29;102961.50;5035853;28;20108;-63
2022/03/24 10:00:25;;;;;;;36.13;25.15;;;;;;;16.62;40.28;102958.84;5031557;28;20210;-63
2022/03/24 10:03:17;;;;;;;32.03;22.08;;;;;;;16.93;38.54;102946.63;5031226;28;20021;-63
2022/03/24 10:05:59;;;;;;;39.05;24.75;;;;;;;17.26;37.99;102957.50;5018841;28;20022;-64
2022/03/24 10:08:26;;;;;;;26.58;19.98;;;;;;;17.53;35.77;102961.78;5020428;28;20025;-64
2022/03/24 10:10:57;;;;;;;35.13;21.65;;;;;;;17.61;35.31;102946.50;5028772;28;20357;-63
2022/03/24 10:13:25;;;;;;;29.75;20.92;;;;;;;17.63;34.46;102949.03;5029023;28;20033;-64
2022/03/24 10:15:51;;;;;;;30.92;21.80;;;;;;;17.93;33.66;102951.13;5027587;28;20030;-63
2022/03/24 10:18:16;;;;;;;28.98;20.10;;;;;;;18.06;34.04;102947.09;5016717;28;20025;-63
2022/03/24 10:20:42;;;;;;;32.50;20.80;;;;;;;18.20;32.59;102935.63;5026019;28;20029;-63
2022/03/24 10:23:07;;;;;;;26.80;20.02;;;;;;;18.16;31.84;102936.97;5028694;28;20025;-64
2022/03/24 10:25:35;;;;;;;27.83;20.25;;;;;;;18.26;32.25;102945.72;5028953;28;20029;-63
2022/03/24 10:28:03;;;;;;;25.92;19.50;;;;;;;18.38;32.41;102946.22;5028032;28;20365;-64
2022/03/24 10:30:28;;;;;;;28.17;20.33;;;;;;;18.55;31.44;102945.19;5028263;28;20040;-63
2022/03/24 10:32:56;;;;;;;28.00;20.38;;;;;;;18.67;31.56;102943.81;5028573;28;20033;-63
2022/03/24 10:35:22;;;;;;;29.75;20.67;;;;;;;18.66;30.64;102935.91;5026090;28;20159;-64
2022/03/24 10:37:51;;;;;;;30.85;20.55;;;;;;;18.79;31.01;102939.75;5028475;28;20464;-63
2022/03/24 10:40:17;;;;;;;28.95;19.98;;;;;;;18.75;30.92;102938.41;5026052;28;20029;-64
2022/03/24 10:42:42;;;;;;;33.38;21.77;;;;;;;18.89;30.29;102934.16;5028083;28;20036;-64
2022/03/24 10:45:15;;;;;;;30.38;20.98;;;;;;;18.84;30.31;102937.38;5028242;28;20025;-64
2022/03/24 10:48:00;;;;;;;34.13;23.23;;;;;;;18.88;30.10;102937.88;5027915;28;20021;-63
2022/03/24 10:50:41;;;;;;;31.38;22.13;;;;;;;18.92;29.98;102933.81;5027328;28;20040;-64
2022/03/24 10:53:11;;;;;;;33.70;21.92;;;;;;;18.75;30.33;102938.41;5026875;28;20500;-63
2022/03/24 10:55:59;;;;;;;31.83;22.48;;;;;;;18.75;30.46;102935.72;5028088;28;20078;-64
2022/03/24 10:58:31;;;;;;;33.50;22.60;;;;;;;18.81;30.44;102935.03;5026822;28;20037;-64
2022/03/24 11:01:00;;;;;;;31.45;21.85;;;;;;;18.77;29.84;102931.00;5020886;28;20108;-64
2022/03/24 11:03:25;;;;;;;28.77;20.52;;;;;;;18.73;29.79;102931.50;5025873;28;20276;-64
2022/03/24 11:05:51;;;;;;;39.65;21.73;;;;;;;18.80;30.04;102933.38;5027879;28;20108;-64
2022/03/24 11:08:18;;;;;;;34.13;22.48;;;;;;;18.59;29.18;102941.13;5026449;28;20021;-64
2022/03/24 11:10:47;;;;;;;35.25;21.23;;;;;;;18.53;29.60;102936.44;5022896;28;20147;-64
2022/03/24 11:13:22;;;;;;;32.65;21.33;;;;;;;18.53;29.65;102928.38;5025290;28;20501;-64
2022/03/24 11:15:50;;;;;;;34.78;21.10;;;;;;;18.52;29.64;102918.63;5018667;28;20034;-64